Date,TemperatureHighF,TemperatureAvgF,TemperatureLowF,DewpointHighF,DewpointAvgF,DewpointLowF,HumidityHigh,HumidityAvg,HumidityLow,PressureMaxIn,PressureMinIn,WindSpeedMaxMPH,WindSpeedAvgMPH,GustSpeedMaxMPH,PrecipitationSumIn
2013-6-1,42.0,31.6,22.0,28.0,21.8,14.0,87,68,42,0.00,40.00,13,8,31,0.00
2013-6-2,51.0,42.8,34.0,23.0,13.6,9.0,64,32,24,0.00,40.00,20,13,30,0.00
2013-6-3,48.0,45.4,43.0,24.0,17.9,14.0,44,33,27,0.00,40.00,22,17,52,0.00
2013-6-4,47.0,41.7,35.0,32.0,22.6,11.0,89,49,29,0.00,40.00,27,16,46,0.00
2013-6-5,45.0,39.2,34.0,30.0,23.5,19.0,81,54,38,0.00,40.00,17,13,32,0.00
2013-6-6,46.0,41.1,37.0,32.0,23.6,16.0,76,51,38,0.00,40.00,9,7,18,0.00
2013-6-7,47.0,41.9,35.0,30.0,27.0,23.0,83,57,44,0.00,40.00,22,10,43,0.00
2013-6-8,46.0,44.8,41.0,31.0,27.5,24.0,65,50,41,0.00,40.00,23,17,47,0.00
2013-6-9,56.0,49.6,40.0,26.0,24.0,22.0,51,37,27,0.00,40.00,21,15,38,0.00
2013-6-10,60.0,55.3,51.0,25.0,22.6,20.0,34,28,23,0.00,40.00,21,14,31,0.00
2013-6-11,56.0,52.5,48.0,21.0,14.2,5.0,28,22,12,0.00,40.00,24,18,45,0.00
2013-6-12,59.0,52.5,44.0,18.0,17.0,15.0,31,25,19,0.00,40.00,17,11,37,0.00
2013-6-13,57.0,52.6,48.0,28.0,21.4,15.0,45,29,25,0.00,40.00,16,12,45,0.00
2013-6-14,56.0,50.4,44.0,27.0,18.8,7.0,51,31,13,0.00,40.00,16,12,30,0.00
2013-6-15,52.0,50.2,46.0,21.0,16.6,8.0,37,26,18,0.00,40.00,17,14,33,0.00
2013-6-16,49.0,43.9,41.0,33.0,27.0,22.0,69,51,41,0.00,40.00,17,11,31,0.00
2013-6-17,51.0,45.9,40.0,31.0,25.2,21.0,66,45,29,0.00,40.00,19,10,45,0.00
2013-6-18,57.0,51.0,41.0,35.0,24.0,18.0,63,37,21,0.00,40.00,10,8,26,0.00
2013-6-19,58.0,50.3,43.0,28.0,9.9,3.0,55,21,12,0.00,40.00,18,12,31,0.00
2013-6-20,56.0,50.5,47.0,14.0,9.3,4.0,21,18,16,0.00,40.00,16,12,29,0.00
2013-6-22,53.0,51.3,47.0,17.0,14.8,13.0,28,23,20,0.00,40.00,18,12,34,0.00
2013-6-23,53.0,46.9,41.0,29.0,20.1,13.0,55,36,24,0.00,40.00,14,11,40,0.00
2013-6-24,53.0,49.0,45.0,22.0,15.1,11.0,40,26,19,0.00,40.00,17,13,34,0.00
2013-6-25,54.0,48.7,42.0,28.0,24.1,17.0,44,38,34,0.00,40.00,23,15,46,0.00
2013-6-26,64.0,55.8,47.0,29.0,26.8,25.0,45,33,25,0.00,40.00,12,10,23,0.00
2013-6-27,65.0,57.1,50.0,31.0,25.8,21.0,39,31,18,0.00,40.00,12,7,22,0.00
2013-6-28,62.0,55.7,50.0,41.0,31.5,24.0,65,42,25,0.00,40.00,21,11,28,0.00
2013-6-29,59.0,53.2,47.0,38.0,34.6,29.0,67,50,37,0.00,40.00,10,6,33,0.00
2013-6-30,54.0,47.5,42.0,41.0,36.7,33.0,90,67,44,0.00,40.00,15,10,38,0.00